createdAt,value
2022-09-12T00:02:35.689Z,6.32
2022-09-12T00:07:38.419Z,6.87
2022-09-12T00:12:41.383Z,6.55
2022-09-12T00:17:44.185Z,6.60
2022-09-12T00:22:47.138Z,7.10
2022-09-12T00:27:49.803Z,7.45
2022-09-12T00:32:54.929Z,7.47
2022-09-12T00:37:57.528Z,6.90
2022-09-12T00:43:00.307Z,6.07
2022-09-12T00:48:04.948Z,6.93
2022-09-12T00:53:09.060Z,7.43
2022-09-12T00:58:20.760Z,7.07
2022-09-12T01:03:24.475Z,6.95
2022-09-12T01:08:28.930Z,7.22
2022-09-12T01:13:34.725Z,6.90
2022-09-12T01:19:12.937Z,5.50
2022-09-12T01:24:37.248Z,6.63
2022-09-12T01:30:00.949Z,6.82
2022-09-12T01:35:27.685Z,7.57
2022-09-12T01:40:33.042Z,7.27
2022-09-12T01:45:46.307Z,6.90
2022-09-12T01:51:05.049Z,7.47
2022-09-12T01:56:13.522Z,8.60
2022-09-12T02:01:29.848Z,9.60
2022-09-12T02:06:47.534Z,9.73
2022-09-12T02:11:54.153Z,9.95
2022-09-12T02:17:04.898Z,7.67
2022-09-12T02:22:11.259Z,8.55
2022-09-12T02:27:18.514Z,8.27
2022-09-12T02:32:43.646Z,8.43
2022-09-12T02:38:05.670Z,8.75
2022-09-12T02:43:08.363Z,9.43
2022-09-12T02:48:34.817Z,9.43
2022-09-12T02:53:38.484Z,10.52
2022-09-12T02:58:41.444Z,10.57
2022-09-12T03:04:09.144Z,10.77
2022-09-12T03:09:11.882Z,9.43
2022-09-12T03:14:36.983Z,9.10
2022-09-12T03:20:02.584Z,8.63
2022-09-12T03:25:17.249Z,8.60
2022-09-12T03:30:19.935Z,7.57
2022-09-12T03:35:24.911Z,7.77
2022-09-12T03:40:27.597Z,7.78
2022-09-12T03:45:30.561Z,7.75
2022-09-12T03:50:34.125Z,8.63
2022-09-12T03:55:39.313Z,8.70
2022-09-12T04:00:43.325Z,7.70
2022-09-12T04:05:47.273Z,8.50
2022-09-12T04:10:49.896Z,8.65
2022-09-12T04:16:00.108Z,8.37
2022-09-12T04:21:08.286Z,9.48
2022-09-12T04:26:12.093Z,8.73
2022-09-12T04:31:18.271Z,9.10
2022-09-12T04:36:20.937Z,8.23
2022-09-12T04:41:26.577Z,8.67
2022-09-12T04:46:34.707Z,9.55
2022-09-12T04:51:39.762Z,8.70
2022-09-12T04:56:44.615Z,9.20
2022-09-12T05:01:47.961Z,9.32
2022-09-12T05:06:50.603Z,8.63
2022-09-12T05:12:08.924Z,10.18
2022-09-12T05:17:11.580Z,10.10
2022-09-12T05:22:14.492Z,9.60
2022-09-12T05:27:17.166Z,10.43
2022-09-12T05:32:19.827Z,9.90
2022-09-12T05:37:23.456Z,11.45
2022-09-12T05:42:26.206Z,9.30
2022-09-12T05:47:29.046Z,9.35
2022-09-12T05:52:32.984Z,11.15
2022-09-12T05:57:36.098Z,9.47
2022-09-12T06:02:39.053Z,9.57
2022-09-12T06:07:41.896Z,9.17
2022-09-12T06:12:44.813Z,8.55
2022-09-12T06:17:51.419Z,7.80
2022-09-12T06:22:54.604Z,7.47
2022-09-12T06:27:57.344Z,7.63
2022-09-12T06:33:00.124Z,6.40
2022-09-12T06:38:02.942Z,6.60
2022-09-12T06:43:05.923Z,6.03
2022-09-12T06:48:09.063Z,7.10
2022-09-12T06:53:11.753Z,6.13
2022-09-12T06:58:14.730Z,6.00
2022-09-12T07:03:17.693Z,5.65
2022-09-12T07:08:20.435Z,5.82
2022-09-12T07:13:23.163Z,5.50
2022-09-12T07:18:25.908Z,6.13
2022-09-12T07:23:29.639Z,4.77
2022-09-12T07:28:34.611Z,5.82
2022-09-12T07:33:38.660Z,5.95
2022-09-12T07:38:42.133Z,4.90
2022-09-12T07:43:45.819Z,4.20
2022-09-12T07:48:52.953Z,4.30
2022-09-12T07:53:56.795Z,4.25
2022-09-12T07:58:59.695Z,4.28
2022-09-12T08:04:03.819Z,3.93
2022-09-12T08:09:08.056Z,3.22
2022-09-12T08:14:10.998Z,3.17
2022-09-12T08:19:13.876Z,2.30
2022-09-12T08:24:16.719Z,2.30
2022-09-12T08:29:20.078Z,2.40
2022-09-12T08:34:22.840Z,1.80
2022-09-12T08:39:25.769Z,2.20
2022-09-12T08:44:43.862Z,2.78
2022-09-12T08:50:12.450Z,2.03
2022-09-12T08:55:24.451Z,2.43
2022-09-12T09:00:39.014Z,2.72
2022-09-12T09:06:00.399Z,2.20
2022-09-12T09:11:21.321Z,2.20
2022-09-12T09:16:30.961Z,2.45
2022-09-12T09:21:56.837Z,2.73
2022-09-12T09:27:14.249Z,2.53
2022-09-12T09:32:30.308Z,1.97
2022-09-12T09:37:45.378Z,2.50
2022-09-12T09:43:23.971Z,2.60
2022-09-12T09:48:34.460Z,2.53
2022-09-12T09:53:54.277Z,2.60
2022-09-12T09:58:57.240Z,2.50
2022-09-12T10:04:00.196Z,2.42
2022-09-12T10:09:36.499Z,2.30
2022-09-12T10:14:42.004Z,2.90
2022-09-12T10:19:52.641Z,2.00
2022-09-12T10:25:03.227Z,1.90
2022-09-12T10:30:19.281Z,2.42
2022-09-12T10:35:23.647Z,2.35
2022-09-12T10:40:33.039Z,1.80
2022-09-12T10:45:37.984Z,1.90
2022-09-12T10:50:42.796Z,2.30
2022-09-12T10:56:10.527Z,2.28
2022-09-12T11:01:38.447Z,1.77
2022-09-12T11:06:47.435Z,2.20
2022-09-12T11:12:08.428Z,2.20
2022-09-12T11:17:37.252Z,2.07
2022-09-12T11:22:55.097Z,1.95
2022-09-12T11:28:12.329Z,1.80
2022-09-12T11:33:29.399Z,2.20
2022-09-12T11:39:04.010Z,1.77
2022-09-12T11:44:46.463Z,1.80
2022-09-12T11:49:51.852Z,2.00
2022-09-12T11:55:06.191Z,2.10
2022-09-12T12:00:18.794Z,2.00
2022-09-12T12:05:29.073Z,1.85
2022-09-12T12:10:39.245Z,2.30
2022-09-12T12:15:57.958Z,2.00
2022-09-12T12:21:19.497Z,1.85
2022-09-12T12:26:43.203Z,1.70
2022-09-12T12:32:04.399Z,2.15
2022-09-12T12:37:19.652Z,1.70
2022-09-12T12:42:34.882Z,1.88
2022-09-12T12:47:46.541Z,2.10
2022-09-12T12:53:17.253Z,1.90
2022-09-12T12:58:33.553Z,1.50
2022-09-12T13:03:37.791Z,1.80
2022-09-12T13:08:54.013Z,2.20
2022-09-12T13:14:03.201Z,1.70
2022-09-12T13:19:29.553Z,2.10
2022-09-12T13:24:32.604Z,1.80
2022-09-12T13:29:35.324Z,2.00
2022-09-12T13:35:00.465Z,1.80
2022-09-12T13:40:24.409Z,1.90
2022-09-12T13:45:27.975Z,1.57
2022-09-12T13:50:58.404Z,1.80
2022-09-12T13:56:01.573Z,1.57
2022-09-12T14:01:10.484Z,1.80
2022-09-12T14:06:13.645Z,1.60
2022-09-12T14:11:27.784Z,1.80
2022-09-12T14:16:33.154Z,1.95
2022-09-12T14:21:37.333Z,2.03
2022-09-12T14:26:42.497Z,1.80
2022-09-12T14:31:45.654Z,1.70
2022-09-12T14:36:51.685Z,1.97
2022-09-12T14:42:05.055Z,1.50
2022-09-12T14:47:21.055Z,1.70
2022-09-12T14:52:35.253Z,1.95
2022-09-12T14:57:41.484Z,1.73
2022-09-12T15:02:45.046Z,9.13
2022-09-12T15:08:00.762Z,2.80
2022-09-12T15:13:06.494Z,2.10
2022-09-12T15:18:09.557Z,1.80
2022-09-12T15:23:34.638Z,1.88
2022-09-12T15:28:37.395Z,1.50
2022-09-12T15:33:40.176Z,1.58
2022-09-12T15:38:43.303Z,1.83
2022-09-12T15:43:47.016Z,1.83
2022-09-12T15:48:50.714Z,1.50
2022-09-12T15:53:53.917Z,1.97
2022-09-12T15:58:59.898Z,2.20
2022-09-12T16:04:04.243Z,2.30
2022-09-12T16:09:06.968Z,1.98
2022-09-12T16:14:14.071Z,2.30
2022-09-12T16:19:16.858Z,1.80
2022-09-12T16:24:19.684Z,2.05
2022-09-12T16:29:22.394Z,2.33
2022-09-12T16:34:25.084Z,2.65
2022-09-12T16:39:27.789Z,2.20
2022-09-12T16:44:30.998Z,2.30
2022-09-12T16:49:33.807Z,2.25
2022-09-12T16:54:36.674Z,2.10
2022-09-12T16:59:39.883Z,1.92
2022-09-12T17:04:42.813Z,2.40
2022-09-12T17:09:48.085Z,2.60
2022-09-12T17:14:50.904Z,2.47
2022-09-12T17:19:53.935Z,2.47
2022-09-12T17:24:56.695Z,1.92
2022-09-12T17:29:59.583Z,3.15
2022-09-12T17:35:02.334Z,2.73
2022-09-12T17:40:05.662Z,5.47
2022-09-12T17:45:09.003Z,5.30
2022-09-12T17:50:30.733Z,5.35
2022-09-12T17:55:38.253Z,4.32
2022-09-12T18:00:59.785Z,3.63
2022-09-12T18:06:02.608Z,3.30
2022-09-12T18:11:06.062Z,3.00
2022-09-12T18:16:11.283Z,2.90
2022-09-12T18:21:14.222Z,2.90
2022-09-12T18:26:17.094Z,2.93
2022-09-12T18:31:22.172Z,3.00
2022-09-12T18:36:25.088Z,2.53
2022-09-12T18:41:29.186Z,3.10
2022-09-12T18:46:33.918Z,3.03
2022-09-12T18:51:40.245Z,3.60
2022-09-12T18:56:44.232Z,3.65
2022-09-12T19:01:47.528Z,3.80
2022-09-12T19:06:51.083Z,3.10
2022-09-12T19:11:54.128Z,3.40
2022-09-12T19:16:57.244Z,3.23
2022-09-12T19:22:00.064Z,3.50
2022-09-12T19:27:02.864Z,3.40
2022-09-12T19:32:05.784Z,3.55
2022-09-12T19:37:08.633Z,3.70
2022-09-12T19:42:12.133Z,4.00
2022-09-12T19:47:14.943Z,4.13
2022-09-12T19:52:17.710Z,4.13
2022-09-12T19:57:20.454Z,4.18
2022-09-12T20:02:25.847Z,4.20
2022-09-12T20:07:29.584Z,3.87
2022-09-12T20:12:32.414Z,4.38
2022-09-12T20:17:36.422Z,4.03
2022-09-12T20:22:40.502Z,4.25
2022-09-12T20:27:43.534Z,4.32
2022-09-12T20:32:46.474Z,4.57
2022-09-12T20:37:49.766Z,4.53
2022-09-12T20:42:53.076Z,4.20
2022-09-12T20:47:55.844Z,4.95
2022-09-12T20:52:59.255Z,4.97
2022-09-12T20:58:01.942Z,4.17
2022-09-12T21:03:04.665Z,5.30
2022-09-12T21:08:07.432Z,5.57
2022-09-12T21:13:11.412Z,6.10
2022-09-12T21:18:14.749Z,6.38
2022-09-12T21:23:17.375Z,5.63
2022-09-12T21:28:20.520Z,5.68
2022-09-12T21:33:23.929Z,5.93
2022-09-12T21:38:26.741Z,5.25
2022-09-12T21:43:29.427Z,5.90
2022-09-12T21:48:32.337Z,5.37
2022-09-12T21:53:37.570Z,5.78
2022-09-12T21:58:40.450Z,5.90
2022-09-12T22:03:43.405Z,5.47
2022-09-12T22:08:46.039Z,6.47
2022-09-12T22:13:48.881Z,5.63
2022-09-12T22:18:52.868Z,5.72
2022-09-12T22:24:16.544Z,5.67
2022-09-12T22:29:20.216Z,5.50
2022-09-12T22:34:23.368Z,5.82
2022-09-12T22:39:26.520Z,5.10
2022-09-12T22:44:29.293Z,5.60
2022-09-12T22:49:32.427Z,5.33
2022-09-12T22:54:35.269Z,5.78
2022-09-12T22:59:38.351Z,5.20
2022-09-12T23:04:41.072Z,5.00
2022-09-12T23:09:44.258Z,6.18
2022-09-12T23:14:47.835Z,5.17
2022-09-12T23:19:50.521Z,5.53
2022-09-12T23:24:53.283Z,5.55
2022-09-12T23:29:56.022Z,5.27
2022-09-12T23:34:59.383Z,5.68
2022-09-12T23:40:03.239Z,5.23
2022-09-12T23:45:06.377Z,5.95
2022-09-12T23:50:09.484Z,5.20
2022-09-12T23:55:12.446Z,5.43
